createdAt,value
2023-04-06T00:00:56.439Z,1.00
2023-04-06T00:05:59.091Z,99.90
2023-04-06T00:11:03.104Z,1.00
2023-04-06T00:16:07.031Z,1.00
2023-04-06T00:21:09.705Z,1.00
2023-04-06T00:26:13.676Z,99.90
2023-04-06T00:31:16.656Z,1.00
2023-04-06T00:36:19.438Z,1.00
2023-04-06T00:41:23.491Z,99.90
2023-04-06T00:46:26.283Z,1.00
2023-04-06T00:51:29.294Z,1.00
2023-04-06T00:56:33.760Z,1.00
2023-04-06T01:01:36.500Z,1.00
2023-04-06T01:06:39.185Z,1.00
2023-04-06T01:11:43.157Z,1.00
2023-04-06T01:16:45.882Z,1.00
2023-04-06T01:21:50.254Z,99.90
2023-04-06T01:26:54.238Z,99.90
2023-04-06T01:31:56.932Z,99.90
2023-04-06T01:36:59.614Z,99.90
2023-04-06T01:42:03.697Z,99.90
2023-04-06T01:47:06.501Z,1.00
2023-04-06T01:52:09.241Z,1.00
2023-04-06T01:57:13.487Z,1.00
2023-04-06T02:02:16.413Z,1.00
2023-04-06T02:07:19.069Z,1.00
2023-04-06T02:12:23.314Z,1.00
2023-04-06T02:17:26.301Z,1.00
2023-04-06T02:22:29.081Z,37.00
2023-04-06T02:27:33.127Z,1.00
2023-04-06T02:32:36.111Z,1.00
2023-04-06T02:37:38.842Z,1.00
2023-04-06T02:42:42.870Z,1.00
2023-04-06T02:47:45.555Z,1.00
2023-04-06T02:52:48.291Z,1.00
2023-04-06T02:57:52.269Z,1.00
2023-04-06T03:02:55.004Z,1.00
2023-04-06T03:07:57.807Z,1.00
2023-04-06T03:13:01.783Z,1.00
2023-04-06T03:18:04.626Z,1.00
2023-04-06T03:23:07.337Z,1.00
2023-04-06T03:28:11.347Z,1.00
2023-04-06T03:33:14.109Z,49.10
2023-04-06T03:38:16.858Z,99.90
2023-04-06T03:43:20.888Z,99.90
2023-04-06T03:48:23.574Z,1.00
2023-04-06T03:53:26.239Z,1.00
2023-04-06T03:58:30.241Z,1.00
2023-04-06T04:03:33.079Z,1.00
2023-04-06T04:08:36.418Z,1.00
2023-04-06T04:13:40.404Z,1.00
2023-04-06T04:18:44.528Z,1.00
2023-04-06T04:23:47.343Z,99.90
2023-04-06T04:28:51.366Z,99.90
2023-04-06T04:33:54.032Z,99.90
2023-04-06T04:38:56.901Z,99.90
2023-04-06T04:44:00.936Z,99.90
2023-04-06T04:49:03.608Z,99.90
2023-04-06T04:54:06.540Z,99.90
2023-04-06T04:59:10.802Z,99.90
2023-04-06T05:04:13.601Z,99.90
2023-04-06T05:09:16.286Z,99.90
2023-04-06T05:14:21.056Z,23.30
2023-04-06T05:19:23.781Z,1.00
2023-04-06T05:24:26.513Z,1.00
2023-04-06T05:29:30.928Z,1.00
2023-04-06T05:34:33.661Z,1.00
2023-04-06T05:39:36.507Z,1.00
2023-04-06T05:44:40.477Z,1.00
2023-04-06T05:49:43.897Z,1.00
2023-04-06T05:54:46.666Z,1.00
2023-04-06T05:59:50.629Z,1.00
2023-04-06T06:04:53.305Z,69.60
2023-04-06T06:09:58.725Z,1.00
2023-04-06T06:15:02.792Z,99.90
2023-04-06T06:20:06.419Z,1.00
2023-04-06T06:25:09.780Z,99.90
2023-04-06T06:30:14.364Z,1.00
2023-04-06T06:35:17.322Z,57.10
2023-04-06T06:40:21.010Z,1.00
2023-04-06T06:45:26.410Z,99.90
2023-04-06T06:50:29.460Z,1.00
2023-04-06T06:55:32.098Z,1.00
2023-04-06T07:00:36.126Z,99.90
2023-04-06T07:05:41.333Z,99.90
2023-04-06T07:10:44.162Z,1.00
2023-04-06T07:15:48.181Z,1.00
2023-04-06T07:20:50.838Z,1.00
2023-04-06T07:25:54.834Z,99.90
2023-04-06T07:30:58.811Z,1.00
2023-04-06T07:36:01.835Z,12.30
2023-04-06T07:41:05.035Z,1.00
2023-04-06T07:46:09.210Z,1.00
2023-04-06T07:51:15.091Z,1.00
2023-04-06T07:56:17.874Z,1.00
2023-04-06T08:01:21.980Z,99.90
2023-04-06T08:06:24.836Z,1.00
2023-04-06T08:11:28.371Z,1.00
2023-04-06T08:16:32.371Z,1.00
2023-04-06T08:21:35.305Z,1.00
2023-04-06T08:26:37.962Z,99.90
2023-04-06T08:31:42.666Z,99.90
2023-04-06T08:36:46.638Z,99.90
2023-04-06T08:41:53.214Z,99.90
2023-04-06T08:46:58.050Z,99.90
2023-04-06T08:52:02.486Z,99.90
2023-04-06T08:57:06.911Z,99.90
2023-04-06T09:02:19.019Z,99.90
2023-04-06T09:07:22.588Z,99.90
2023-04-06T09:12:26.634Z,99.90
2023-04-06T09:17:34.380Z,99.90
2023-04-06T09:22:38.528Z,99.90
2023-04-06T09:27:41.238Z,99.90
2023-04-06T10:14:12.853Z,99.90
2023-04-06T10:19:20.441Z,99.90
2023-04-06T10:24:23.362Z,99.90
2023-04-06T10:29:27.451Z,99.90
2023-04-06T10:34:37.004Z,99.90
2023-04-06T10:39:48.180Z,99.90
2023-04-06T10:44:52.483Z,99.90
2023-04-06T10:49:55.154Z,99.90
2023-04-06T10:54:58.746Z,99.90
2023-04-06T11:00:02.767Z,99.90
2023-04-06T11:05:05.981Z,99.90
2023-04-06T11:10:16.541Z,99.90
2023-04-06T11:15:22.303Z,99.90
2023-04-06T11:20:25.072Z,99.90
2023-04-06T11:25:28.687Z,99.90
2023-04-06T11:30:32.775Z,99.90
2023-04-06T11:35:36.782Z,99.90
2023-04-06T11:40:39.536Z,99.90
2023-04-06T11:45:44.101Z,99.90
2023-04-06T11:50:48.642Z,99.90
2023-04-06T11:55:51.429Z,99.90
2023-04-06T12:00:55.459Z,99.90
2023-04-06T12:05:59.707Z,99.90
2023-04-06T12:11:03.468Z,99.90
2023-04-06T12:16:07.876Z,99.90
2023-04-06T12:21:10.872Z,99.90
2023-04-06T12:26:13.598Z,99.90
2023-04-06T12:31:22.430Z,99.90
2023-04-06T12:36:25.921Z,99.90
2023-04-06T12:41:29.625Z,99.90
2023-04-06T12:46:33.701Z,99.90
2023-04-06T12:51:36.537Z,99.90
2023-04-06T12:56:39.227Z,99.90
2023-04-06T13:01:43.201Z,99.90
2023-04-06T13:06:45.906Z,99.90
2023-04-06T13:11:48.662Z,99.90
2023-04-06T13:16:52.884Z,99.90
2023-04-06T13:21:55.749Z,99.90
2023-04-06T13:26:58.588Z,99.90
2023-04-06T13:32:02.793Z,99.90
2023-04-06T13:37:05.652Z,99.90
2023-04-06T13:42:08.619Z,99.90
2023-04-06T13:47:13.317Z,99.90
2023-04-06T13:52:16.373Z,99.90
2023-04-06T13:57:19.067Z,99.90
2023-04-06T14:02:28.232Z,99.90
2023-04-06T14:07:31.391Z,99.90
2023-04-06T14:12:34.065Z,99.90
2023-04-06T14:17:38.302Z,99.90
2023-04-06T14:22:42.044Z,99.90
2023-04-06T14:27:45.252Z,99.90
2023-04-06T14:32:49.353Z,99.90
2023-04-06T14:37:52.467Z,99.90
2023-04-06T14:42:56.704Z,99.90
2023-04-06T14:48:00.767Z,99.90
2023-04-06T14:53:03.439Z,99.90
2023-04-06T14:58:06.228Z,99.90
2023-04-06T15:03:10.533Z,99.90
2023-04-06T15:08:15.985Z,99.90
2023-04-06T15:13:18.953Z,99.90
2023-04-06T15:18:22.972Z,99.90
2023-04-06T15:23:25.991Z,99.90
2023-04-06T15:28:29.417Z,99.90
2023-04-06T15:33:33.596Z,99.90
2023-04-06T15:38:37.738Z,99.90
2023-04-06T15:43:40.675Z,99.90
2023-04-06T15:48:44.924Z,99.90
2023-04-06T15:53:47.778Z,99.90
2023-04-06T15:58:50.546Z,99.90
2023-04-06T16:03:54.872Z,99.90
2023-04-06T16:08:57.581Z,99.90
2023-04-06T16:14:00.956Z,99.90
2023-04-06T16:19:05.152Z,99.90
2023-04-06T16:24:08.567Z,99.90
2023-04-06T16:29:11.420Z,99.90
2023-04-06T16:34:15.551Z,99.90
2023-04-06T16:39:18.229Z,99.90
2023-04-06T16:44:21.596Z,99.90
2023-04-06T16:49:25.706Z,99.90
2023-04-06T16:54:28.455Z,99.90
2023-04-06T16:59:31.627Z,99.90
2023-04-06T17:04:37.537Z,99.90
2023-04-06T17:09:42.667Z,99.90
2023-04-06T17:14:45.529Z,99.90
2023-04-06T17:19:49.531Z,99.90
2023-04-06T17:24:52.229Z,99.90
2023-04-06T17:30:00.079Z,99.90
2023-04-06T17:35:04.420Z,99.90
2023-04-06T17:40:08.428Z,99.90
2023-04-06T17:45:13.766Z,99.90
2023-04-06T17:50:17.900Z,99.90
2023-04-06T17:55:22.400Z,99.90
2023-04-06T18:00:25.689Z,99.90
2023-04-06T18:05:32.759Z,99.90
2023-04-06T18:10:38.400Z,99.90
2023-04-06T18:15:41.205Z,99.90
2023-04-06T18:20:45.319Z,99.90
2023-04-06T18:25:48.060Z,99.90
2023-04-06T18:30:50.838Z,99.90
2023-04-06T18:35:56.512Z,99.90
2023-04-06T18:40:59.539Z,99.90
2023-04-06T18:46:02.242Z,99.90
2023-04-06T18:51:06.451Z,99.90
2023-04-06T18:56:16.438Z,99.90
2023-04-06T19:01:23.417Z,99.90
2023-04-06T19:06:28.121Z,99.90
2023-04-06T19:11:32.337Z,99.90
2023-04-06T19:16:40.794Z,99.90
2023-04-06T19:21:44.847Z,99.90
2023-04-06T19:26:47.622Z,99.90
2023-04-06T19:31:53.219Z,99.90
2023-04-06T19:36:57.308Z,99.90
2023-04-06T19:41:59.933Z,99.90
2023-04-06T19:47:05.014Z,99.90
2023-04-06T19:52:09.980Z,99.90
2023-04-06T19:57:12.681Z,99.90
2023-04-06T20:02:15.794Z,99.90
2023-04-06T20:07:19.898Z,99.90
2023-04-06T20:12:22.606Z,99.90
2023-04-06T20:17:25.677Z,1.00
2023-04-06T20:22:29.701Z,1.00
2023-04-06T20:27:32.506Z,1.00
2023-04-06T20:32:35.280Z,1.00
2023-04-06T20:37:39.376Z,1.00
2023-04-06T20:42:42.511Z,1.00
2023-04-06T20:47:45.978Z,1.00
2023-04-06T20:52:50.323Z,54.00
2023-04-06T20:57:53.038Z,1.00
2023-04-06T21:02:56.057Z,1.00
2023-04-06T21:08:00.315Z,1.00
2023-04-06T21:13:03.010Z,1.00
2023-04-06T21:18:06.072Z,1.00
2023-04-06T21:23:10.154Z,1.00
2023-04-06T21:28:12.821Z,1.00
2023-04-06T21:33:15.559Z,29.60
2023-04-06T21:38:19.667Z,99.90
2023-04-06T21:43:22.474Z,99.90
2023-04-06T21:48:25.217Z,99.90
2023-04-06T21:53:29.211Z,99.90
2023-04-06T21:58:31.852Z,99.90
2023-04-06T22:03:34.670Z,99.90
2023-04-06T22:08:39.089Z,1.00
2023-04-06T22:13:42.178Z,1.00
2023-04-06T22:18:44.836Z,1.00
2023-04-06T22:23:48.849Z,1.00
2023-04-06T22:53:52.270Z,1.00
2023-04-06T23:11:55.541Z,99.90
2023-04-06T23:17:53.214Z,99.90
2023-04-06T23:29:35.152Z,99.90
2023-04-06T23:47:22.606Z,1.00
